createdAt,value
2018-04-26T00:00:24.143Z,8.92
2018-04-26T00:02:49.901Z,8.92
2018-04-26T00:05:15.677Z,8.90
2018-04-26T00:07:41.421Z,8.86
2018-04-26T00:10:07.199Z,8.86
2018-04-26T00:12:32.932Z,8.85
2018-04-26T00:14:58.708Z,8.83
2018-04-26T00:17:24.520Z,8.80
2018-04-26T00:19:50.335Z,8.79
2018-04-26T00:22:16.096Z,8.75
2018-04-26T00:24:41.901Z,8.74
2018-04-26T00:27:07.734Z,8.72
2018-04-26T00:29:33.509Z,8.72
2018-04-26T00:31:59.264Z,8.73
2018-04-26T00:34:25.036Z,8.72
2018-04-26T00:36:50.804Z,8.69
2018-04-26T00:39:16.599Z,8.67
2018-04-26T00:41:42.359Z,8.65
2018-04-26T00:44:08.123Z,8.64
2018-04-26T00:46:33.892Z,8.63
2018-04-26T00:48:59.639Z,8.63
2018-04-26T00:51:37.831Z,8.65
2018-04-26T00:54:03.579Z,8.69
2018-04-26T00:56:29.344Z,8.73
2018-04-26T00:58:55.091Z,8.79
2018-04-26T01:01:20.871Z,8.86
2018-04-26T01:03:46.620Z,8.91
2018-04-26T01:06:12.411Z,8.98
2018-04-26T01:08:38.163Z,9.03
2018-04-26T01:11:03.945Z,9.08
2018-04-26T01:13:29.689Z,9.12
2018-04-26T01:15:55.504Z,9.14
2018-04-26T01:18:21.259Z,9.21
2018-04-26T01:20:47.032Z,9.25
2018-04-26T01:23:12.787Z,9.33
2018-04-26T01:25:38.576Z,9.39
2018-04-26T01:28:04.332Z,9.47
2018-04-26T01:30:30.188Z,9.51
2018-04-26T01:32:55.939Z,9.49
2018-04-26T01:35:21.720Z,9.47
2018-04-26T01:37:47.491Z,9.48
2018-04-26T01:40:13.251Z,9.48
2018-04-26T01:42:38.995Z,9.49
2018-04-26T01:45:04.788Z,9.54
2018-04-26T01:47:30.612Z,9.60
2018-04-26T01:49:56.352Z,9.63
2018-04-26T01:52:22.142Z,9.69
2018-04-26T01:54:47.900Z,9.72
2018-04-26T01:57:13.688Z,9.72
2018-04-26T01:59:39.447Z,9.73
2018-04-26T02:02:05.266Z,9.71
2018-04-26T02:04:31.011Z,9.70
2018-04-26T02:06:56.837Z,9.73
2018-04-26T02:09:22.615Z,9.77
2018-04-26T02:11:48.536Z,9.80
2018-04-26T02:14:14.316Z,9.86
2018-04-26T02:16:40.082Z,9.88
2018-04-26T02:19:06.109Z,9.89
2018-04-26T02:21:31.871Z,9.88
2018-04-26T02:23:57.627Z,9.88
2018-04-26T02:26:23.413Z,9.86
2018-04-26T02:28:49.207Z,9.87
2018-04-26T02:31:14.980Z,9.86
2018-04-26T02:33:40.743Z,9.87
2018-04-26T02:36:06.501Z,9.90
2018-04-26T02:38:32.309Z,9.91
2018-04-26T02:40:58.065Z,9.89
2018-04-26T02:43:23.815Z,9.89
2018-04-26T02:45:49.603Z,9.88
2018-04-26T02:48:15.392Z,9.89
2018-04-26T02:50:41.148Z,9.91
2018-04-26T02:53:06.939Z,9.95
2018-04-26T02:55:32.727Z,9.95
2018-04-26T02:57:58.558Z,9.95
2018-04-26T03:00:24.380Z,9.94
2018-04-26T03:02:50.167Z,9.97
2018-04-26T03:05:16.010Z,10.00
2018-04-26T03:07:41.897Z,10.00
2018-04-26T03:10:07.652Z,10.00
2018-04-26T03:12:33.428Z,10.01
2018-04-26T03:14:59.189Z,10.02
2018-04-26T03:17:24.976Z,10.05
2018-04-26T03:19:50.731Z,10.05
2018-04-26T03:22:16.537Z,10.05
2018-04-26T03:24:42.283Z,10.02
2018-04-26T03:27:08.048Z,10.01
2018-04-26T03:29:33.795Z,9.98
2018-04-26T03:31:59.596Z,9.97
2018-04-26T03:34:25.358Z,9.96
2018-04-26T03:36:51.119Z,9.96
2018-04-26T03:39:16.902Z,9.92
2018-04-26T03:41:42.655Z,9.87
2018-04-26T03:44:08.407Z,9.92
2018-04-26T03:46:34.169Z,9.98
2018-04-26T03:49:00.108Z,9.99
2018-04-26T03:51:25.926Z,10.02
2018-04-26T03:53:51.745Z,9.95
2018-04-26T03:56:17.494Z,9.95
2018-04-26T03:58:43.299Z,10.00
2018-04-26T04:04:23.860Z,10.02
2018-04-26T04:06:49.631Z,10.03
2018-04-26T04:09:15.412Z,10.06
2018-04-26T04:11:41.159Z,10.06
2018-04-26T04:14:06.935Z,10.06
2018-04-26T04:16:32.687Z,10.08
2018-04-26T04:18:58.487Z,10.07
2018-04-26T04:21:24.236Z,10.13
2018-04-26T04:23:50.016Z,10.13
2018-04-26T04:26:15.783Z,10.15
2018-04-26T04:28:41.555Z,10.15
2018-04-26T04:31:07.308Z,10.21
2018-04-26T04:33:33.075Z,10.21
2018-04-26T04:35:58.900Z,10.21
2018-04-26T04:38:24.718Z,10.26
2018-04-26T04:40:50.471Z,10.26
2018-04-26T04:43:16.262Z,10.30
2018-04-26T04:45:42.012Z,10.34
2018-04-26T04:48:07.821Z,10.40
2018-04-26T04:50:33.571Z,10.42
2018-04-26T04:52:59.343Z,10.44
2018-04-26T04:55:25.088Z,10.43
2018-04-26T04:57:50.882Z,10.42
2018-04-26T05:00:16.706Z,10.44
2018-04-26T05:02:42.443Z,10.45
2018-04-26T05:05:08.218Z,10.50
2018-04-26T05:07:33.971Z,10.52
2018-04-26T05:09:59.748Z,10.54
2018-04-26T05:12:25.492Z,10.53
2018-04-26T05:14:51.249Z,10.58
2018-04-26T05:17:17.031Z,10.64
2018-04-26T05:19:42.957Z,10.66
2018-04-26T05:22:08.639Z,10.72
2018-04-26T05:24:34.459Z,10.79
2018-04-26T05:27:00.486Z,10.83
2018-04-26T05:29:26.312Z,10.92
2018-04-26T05:31:52.110Z,10.96
2018-04-26T05:34:17.887Z,11.04
2018-04-26T05:36:43.888Z,11.08
2018-04-26T05:39:09.651Z,11.05
2018-04-26T05:41:35.447Z,11.05
2018-04-26T05:44:01.243Z,11.03
2018-04-26T05:46:27.260Z,10.98
2018-04-26T05:48:53.038Z,11.03
2018-04-26T05:51:18.856Z,11.07
2018-04-26T05:53:44.644Z,11.05
2018-04-26T05:56:10.394Z,10.96
2018-04-26T05:58:36.218Z,10.98
2018-04-26T06:01:01.994Z,11.00
2018-04-26T06:03:27.771Z,11.06
2018-04-26T06:05:53.591Z,11.09
2018-04-26T06:08:19.363Z,11.29
2018-04-26T06:10:45.185Z,11.53
2018-04-26T06:13:10.961Z,11.73
2018-04-26T06:15:36.867Z,11.89
2018-04-26T06:18:02.639Z,11.98
2018-04-26T06:20:28.424Z,12.08
2018-04-26T06:22:54.187Z,12.10
2018-04-26T06:25:19.983Z,12.15
2018-04-26T06:27:45.731Z,12.29
2018-04-26T06:30:11.532Z,12.35
2018-04-26T06:32:37.303Z,12.42
2018-04-26T06:35:03.087Z,12.49
2018-04-26T06:37:28.874Z,12.52
2018-04-26T06:39:54.624Z,12.56
2018-04-26T06:42:20.474Z,12.66
2018-04-26T06:44:46.155Z,12.63
2018-04-26T06:47:11.940Z,12.59
2018-04-26T06:49:37.744Z,12.62
2018-04-26T06:52:03.509Z,12.65
2018-04-26T06:54:29.603Z,12.61
2018-04-26T06:56:55.428Z,12.53
2018-04-26T06:59:21.173Z,12.38
2018-04-26T07:01:46.943Z,12.36
2018-04-26T07:04:12.699Z,12.34
2018-04-26T07:06:38.500Z,12.38
2018-04-26T07:09:04.276Z,12.42
2018-04-26T07:11:30.289Z,12.48
2018-04-26T07:13:56.055Z,12.60
2018-04-26T07:16:21.815Z,12.63
2018-04-26T07:18:47.573Z,12.68
2018-04-26T07:21:13.351Z,12.71
2018-04-26T07:23:39.107Z,12.74
2018-04-26T07:26:04.912Z,12.84
2018-04-26T07:28:30.699Z,12.97
2018-04-26T07:30:56.470Z,12.92
2018-04-26T07:33:22.227Z,12.99
2018-04-26T07:35:48.017Z,13.09
2018-04-26T07:38:13.786Z,13.18
2018-04-26T07:40:39.564Z,13.33
2018-04-26T07:43:05.351Z,13.37
2018-04-26T07:45:31.111Z,13.42
2018-04-26T07:47:56.875Z,13.55
2018-04-26T07:50:22.639Z,13.63
2018-04-26T07:52:48.429Z,13.65
2018-04-26T07:55:14.186Z,13.63
2018-04-26T07:57:40.204Z,13.53
2018-04-26T08:00:06.018Z,13.41
2018-04-26T08:02:31.810Z,13.32
2018-04-26T08:04:57.571Z,13.38
2018-04-26T08:07:23.327Z,13.30
2018-04-26T08:09:49.091Z,13.27
2018-04-26T08:12:14.868Z,13.05
2018-04-26T08:14:40.624Z,12.83
2018-04-26T08:17:06.404Z,12.70
2018-04-26T08:19:32.172Z,12.53
2018-04-26T08:21:57.951Z,12.40
2018-04-26T08:24:23.709Z,12.39
2018-04-26T08:26:49.482Z,12.44
2018-04-26T08:29:15.255Z,12.53
2018-04-26T08:31:41.025Z,12.79
2018-04-26T08:34:06.767Z,12.85
2018-04-26T08:36:32.563Z,12.86
2018-04-26T08:38:58.364Z,12.74
2018-04-26T08:41:24.148Z,12.70
2018-04-26T08:43:49.916Z,12.66
2018-04-26T08:46:15.673Z,12.70
2018-04-26T08:48:41.415Z,12.67
2018-04-26T08:51:07.292Z,12.77
2018-04-26T08:53:33.063Z,12.85
2018-04-26T08:55:58.815Z,12.89
2018-04-26T08:58:24.648Z,12.96
2018-04-26T09:00:50.435Z,13.19
2018-04-26T09:03:16.220Z,13.42
2018-04-26T09:05:41.967Z,13.63
2018-04-26T09:08:07.745Z,13.76
2018-04-26T09:10:33.479Z,13.81
2018-04-26T09:12:59.256Z,14.03
2018-04-26T09:15:25.020Z,14.30
2018-04-26T09:17:50.799Z,14.66
2018-04-26T09:20:16.614Z,14.97
2018-04-26T09:22:42.389Z,15.19
2018-04-26T09:25:08.175Z,15.23
2018-04-26T09:27:33.951Z,15.28
2018-04-26T09:30:00.061Z,15.38
2018-04-26T09:32:25.752Z,15.51
2018-04-26T09:34:51.503Z,15.55
2018-04-26T09:37:17.266Z,15.67
2018-04-26T09:39:43.070Z,15.87
2018-04-26T09:42:08.878Z,16.00
2018-04-26T09:44:34.644Z,16.19
2018-04-26T09:47:00.440Z,16.24
2018-04-26T09:49:26.192Z,16.11
2018-04-26T09:51:51.966Z,16.01
2018-04-26T09:54:17.715Z,15.75
2018-04-26T09:56:43.673Z,15.55
2018-04-26T09:59:09.438Z,15.54
2018-04-26T10:01:35.220Z,15.82
2018-04-26T10:04:07.136Z,16.19
2018-04-26T10:06:32.931Z,16.53
2018-04-26T10:08:58.730Z,16.76
2018-04-26T10:11:24.495Z,16.92
2018-04-26T10:13:50.268Z,16.80
2018-04-26T10:16:16.027Z,16.63
2018-04-26T10:18:41.892Z,16.68
2018-04-26T10:21:07.645Z,16.64
2018-04-26T10:23:33.431Z,16.52
2018-04-26T10:25:59.284Z,16.28
2018-04-26T10:28:25.055Z,16.08
2018-04-26T10:30:50.827Z,16.02
2018-04-26T10:33:16.626Z,16.10
2018-04-26T10:35:42.388Z,16.19
2018-04-26T10:38:08.162Z,16.16
2018-04-26T10:40:33.911Z,15.92
2018-04-26T10:42:59.695Z,15.54
2018-04-26T10:45:25.483Z,15.34
2018-04-26T10:47:51.254Z,15.37
2018-04-26T10:50:17.016Z,15.43
2018-04-26T10:52:42.843Z,15.57
2018-04-26T10:55:08.591Z,15.61
2018-04-26T10:57:34.414Z,15.41
2018-04-26T11:00:00.219Z,15.53
2018-04-26T11:02:25.959Z,15.51
2018-04-26T11:04:52.020Z,15.58
2018-04-26T11:07:17.808Z,15.76
2018-04-26T11:09:43.583Z,15.80
2018-04-26T11:12:09.359Z,15.73
2018-04-26T11:14:35.107Z,15.54
2018-04-26T11:17:00.923Z,15.84
2018-04-26T11:19:26.724Z,16.23
2018-04-26T11:21:52.499Z,16.55
2018-04-26T11:24:18.313Z,16.92
2018-04-26T11:26:44.098Z,16.78
2018-04-26T11:29:09.860Z,16.73
2018-04-26T11:31:35.644Z,16.50
2018-04-26T11:34:01.413Z,16.27
2018-04-26T11:36:27.178Z,16.41
2018-04-26T11:38:52.962Z,16.16
2018-04-26T11:41:18.738Z,16.34
2018-04-26T11:43:44.480Z,16.51
2018-04-26T11:46:10.236Z,16.82
2018-04-26T11:48:36.004Z,17.18
2018-04-26T11:51:01.780Z,17.20
2018-04-26T11:53:27.600Z,17.17
2018-04-26T11:55:53.354Z,17.04
2018-04-26T11:58:19.238Z,16.93
2018-04-26T12:00:45.062Z,16.61
2018-04-26T12:03:11.160Z,16.34
2018-04-26T12:05:36.944Z,16.03
2018-04-26T12:08:02.798Z,15.99
2018-04-26T12:10:28.624Z,16.21
2018-04-26T12:12:54.396Z,16.45
2018-04-26T12:15:20.150Z,16.55
2018-04-26T12:17:45.931Z,16.35
2018-04-26T12:20:11.946Z,16.26
2018-04-26T12:22:37.697Z,16.12
2018-04-26T12:25:03.491Z,15.81
2018-04-26T12:27:29.247Z,15.76
2018-04-26T12:29:55.326Z,15.49
2018-04-26T12:32:21.091Z,15.14
2018-04-26T12:34:46.876Z,14.79
2018-04-26T12:37:12.639Z,14.17
2018-04-26T12:39:38.427Z,13.84
2018-04-26T12:42:04.290Z,13.55
2018-04-26T12:44:29.991Z,13.36
2018-04-26T12:46:55.758Z,13.49
2018-04-26T12:49:21.538Z,13.82
2018-04-26T12:51:47.307Z,14.44
2018-04-26T12:54:13.259Z,14.90
2018-04-26T12:56:39.054Z,15.14
2018-04-26T12:59:04.965Z,15.24
2018-04-26T13:01:30.975Z,15.17
2018-04-26T13:03:56.743Z,15.18
2018-04-26T13:06:22.617Z,15.12
2018-04-26T13:08:48.391Z,15.15
2018-04-26T13:11:14.165Z,15.27
2018-04-26T13:13:39.951Z,15.19
2018-04-26T13:16:05.715Z,14.94
2018-04-26T13:18:31.505Z,14.63
2018-04-26T13:20:57.271Z,14.26
2018-04-26T13:23:23.168Z,13.94
2018-04-26T13:25:49.003Z,13.86
2018-04-26T13:28:14.790Z,13.78
2018-04-26T13:30:40.570Z,13.55
2018-04-26T13:33:06.336Z,13.48
2018-04-26T13:35:32.141Z,13.50
2018-04-26T13:37:58.348Z,13.85
2018-04-26T13:40:24.470Z,14.25
2018-04-26T13:42:50.244Z,14.62
2018-04-26T13:45:15.991Z,14.85
2018-04-26T13:47:41.764Z,14.72
2018-04-26T13:50:07.547Z,14.67
2018-04-26T13:52:33.335Z,14.81
2018-04-26T13:54:59.102Z,14.88
2018-04-26T13:57:24.889Z,14.74
2018-04-26T13:59:50.701Z,14.66
2018-04-26T14:02:16.487Z,15.06
2018-04-26T14:04:42.223Z,15.14
2018-04-26T14:07:08.015Z,15.20
2018-04-26T14:09:33.949Z,15.07
2018-04-26T14:11:59.899Z,14.86
2018-04-26T14:14:25.682Z,14.81
2018-04-26T14:16:51.495Z,14.85
2018-04-26T14:19:17.263Z,14.92
2018-04-26T14:21:43.077Z,14.74
2018-04-26T14:24:08.888Z,14.67
2018-04-26T14:26:34.668Z,14.48
2018-04-26T14:29:00.469Z,14.41
2018-04-26T14:31:26.316Z,14.50
2018-04-26T14:33:52.109Z,14.67
2018-04-26T14:36:17.876Z,14.61
2018-04-26T14:38:43.664Z,14.62
2018-04-26T14:41:09.576Z,14.86
2018-04-26T14:43:35.388Z,15.04
2018-04-26T14:46:01.131Z,15.29
2018-04-26T14:48:26.900Z,15.44
2018-04-26T14:50:52.698Z,15.36
2018-04-26T14:53:18.460Z,15.28
2018-04-26T14:55:44.232Z,15.22
2018-04-26T14:58:10.363Z,14.95
2018-04-26T15:00:36.139Z,14.76
2018-04-26T15:03:01.920Z,14.57
2018-04-26T15:05:27.716Z,14.37
2018-04-26T15:07:53.478Z,14.33
2018-04-26T15:10:19.226Z,14.22
2018-04-26T15:12:44.994Z,14.18
2018-04-26T15:15:10.752Z,14.09
2018-04-26T15:17:36.523Z,13.95
2018-04-26T15:20:02.310Z,13.95
2018-04-26T15:22:28.088Z,13.78
2018-04-26T15:24:53.831Z,13.77
2018-04-26T15:27:19.633Z,13.84
2018-04-26T15:29:45.391Z,13.97
2018-04-26T15:32:11.155Z,14.22
2018-04-26T15:34:36.904Z,14.39
2018-04-26T15:37:02.698Z,14.28
2018-04-26T15:39:28.440Z,14.21
2018-04-26T15:41:54.199Z,14.17
2018-04-26T15:44:19.987Z,14.19
2018-04-26T15:46:46.128Z,14.14
2018-04-26T15:49:11.889Z,14.03
2018-04-26T15:51:37.719Z,13.89
2018-04-26T15:54:15.687Z,13.89
2018-04-26T15:56:54.076Z,13.96
2018-04-26T15:59:32.262Z,14.28
2018-04-26T16:02:25.229Z,14.47
2018-04-26T16:05:03.338Z,14.64
2018-04-26T16:11:05.968Z,14.98
2018-04-26T16:13:50.238Z,14.91
2018-04-26T16:16:34.410Z,14.90
2018-04-26T16:19:18.663Z,14.90
2018-04-26T16:21:56.775Z,14.82
2018-04-26T16:27:43.510Z,14.35
2018-04-26T16:30:21.727Z,14.21
2018-04-26T16:33:04.944Z,14.07
2018-04-26T16:35:42.870Z,14.07
2018-04-26T16:38:21.062Z,14.08
2018-04-26T16:40:46.820Z,13.86
2018-04-26T16:43:13.688Z,13.80
2018-04-26T16:45:39.488Z,13.65
2018-04-26T16:48:05.260Z,13.67
2018-04-26T16:50:31.023Z,13.58
2018-04-26T16:52:56.796Z,13.59
2018-04-26T16:55:22.557Z,13.56
2018-04-26T16:57:48.614Z,13.51
2018-04-26T17:00:14.371Z,13.42
2018-04-26T17:02:40.139Z,13.26
2018-04-26T17:05:05.888Z,13.17
2018-04-26T17:07:31.675Z,13.14
2018-04-26T17:09:57.431Z,13.16
2018-04-26T17:12:23.199Z,13.20
2018-04-26T17:14:48.993Z,13.24
2018-04-26T17:17:14.771Z,13.33
2018-04-26T17:19:40.739Z,13.32
2018-04-26T17:22:06.638Z,13.47
2018-04-26T17:24:32.442Z,13.51
2018-04-26T17:26:58.195Z,13.45
2018-04-26T17:29:30.851Z,13.47
2018-04-26T17:31:56.615Z,13.43
2018-04-26T17:34:22.390Z,13.30
2018-04-26T17:36:48.193Z,13.17
2018-04-26T17:39:13.963Z,13.04
2018-04-26T17:41:39.727Z,12.95
2018-04-26T17:44:05.519Z,12.91
2018-04-26T17:46:31.280Z,12.89
2018-04-26T17:48:57.051Z,12.78
2018-04-26T17:51:22.863Z,12.73
2018-04-26T17:53:48.651Z,12.70
2018-04-26T17:56:14.392Z,12.57
2018-04-26T17:58:40.360Z,12.51
2018-04-26T18:01:06.115Z,12.43
2018-04-26T18:03:31.951Z,12.41
2018-04-26T18:05:57.743Z,12.39
2018-04-26T18:08:24.008Z,12.37
2018-04-26T18:10:49.775Z,12.35
2018-04-26T18:13:15.544Z,12.22
2018-04-26T18:15:41.292Z,12.07
2018-04-26T18:18:07.088Z,11.89
2018-04-26T18:20:32.835Z,11.82
2018-04-26T18:22:58.879Z,11.81
2018-04-26T18:25:24.651Z,11.78
2018-04-26T18:27:50.394Z,11.68
2018-04-26T18:30:16.171Z,11.70
2018-04-26T18:32:41.924Z,11.65
2018-04-26T18:35:07.714Z,11.55
2018-04-26T18:37:33.468Z,11.45
2018-04-26T18:39:59.292Z,11.36
2018-04-26T18:42:25.075Z,11.26
2018-04-26T18:44:50.823Z,11.15
2018-04-26T18:47:16.604Z,11.10
2018-04-26T18:49:42.349Z,11.07
2018-04-26T18:52:08.168Z,11.14
2018-04-26T18:54:34.222Z,11.12
2018-04-26T18:57:00.163Z,11.11
2018-04-26T18:59:25.909Z,11.08
2018-04-26T19:01:51.673Z,11.06
2018-04-26T19:04:17.459Z,11.01
2018-04-26T19:06:43.219Z,10.88
2018-04-26T19:09:08.989Z,10.83
2018-04-26T19:11:34.780Z,10.81
2018-04-26T19:14:00.540Z,10.78
2018-04-26T19:16:26.303Z,10.73
2018-04-26T19:18:52.076Z,10.69
2018-04-26T19:21:17.900Z,10.64
2018-04-26T19:23:43.663Z,10.61
2018-04-26T19:26:09.413Z,10.53
2018-04-26T19:28:35.223Z,10.47
2018-04-26T19:31:00.988Z,10.46
2018-04-26T19:33:26.734Z,10.37
2018-04-26T19:35:52.509Z,10.29
2018-04-26T19:38:18.295Z,10.24
2018-04-26T19:40:44.044Z,10.18
2018-04-26T19:43:09.831Z,10.13
2018-04-26T19:45:35.591Z,10.07
2018-04-26T19:48:01.360Z,10.04
2018-04-26T19:50:27.187Z,10.00
2018-04-26T19:52:53.304Z,10.00
2018-04-26T19:55:19.160Z,9.93
2018-04-26T19:57:44.973Z,9.87
2018-04-26T20:00:10.682Z,9.84
2018-04-26T20:02:36.447Z,9.82
2018-04-26T20:05:02.234Z,9.79
2018-04-26T20:07:27.983Z,9.77
2018-04-26T20:09:53.731Z,9.75
2018-04-26T20:12:19.504Z,9.72
2018-04-26T20:14:45.394Z,9.69
2018-04-26T20:17:11.168Z,9.65
2018-04-26T20:19:36.927Z,9.62
2018-04-26T20:22:02.763Z,9.60
2018-04-26T20:24:28.543Z,9.58
2018-04-26T20:26:54.288Z,9.53
2018-04-26T20:29:20.128Z,9.42
2018-04-26T20:31:45.907Z,9.43
2018-04-26T20:34:11.662Z,9.42
2018-04-26T20:36:37.439Z,9.39
2018-04-26T20:39:03.238Z,9.38
2018-04-26T20:41:37.315Z,9.38
2018-04-26T20:44:03.139Z,9.35
2018-04-26T20:46:28.906Z,9.34
2018-04-26T20:48:54.688Z,9.33
2018-04-26T20:51:20.484Z,9.28
2018-04-26T20:53:46.235Z,9.33
2018-04-26T20:56:12.014Z,9.32
2018-04-26T20:58:37.792Z,9.33
2018-04-26T21:01:03.568Z,9.35
2018-04-26T21:03:29.319Z,9.34
2018-04-26T21:05:55.112Z,9.38
2018-04-26T21:08:20.902Z,9.39
2018-04-26T21:10:46.692Z,9.38
2018-04-26T21:13:12.463Z,9.38
2018-04-26T21:15:38.209Z,9.39
2018-04-26T21:18:03.986Z,9.40
2018-04-26T21:20:29.804Z,9.41
2018-04-26T21:22:55.617Z,9.44
2018-04-26T21:25:21.421Z,9.43
2018-04-26T21:27:47.188Z,9.42
2018-04-26T21:30:12.953Z,9.41
2018-04-26T21:32:38.724Z,9.41
2018-04-26T21:35:04.471Z,9.40
2018-04-26T21:37:30.229Z,9.38
2018-04-26T21:39:55.973Z,9.34
2018-04-26T21:42:21.749Z,9.29
2018-04-26T21:44:47.527Z,9.37
2018-04-26T21:47:13.287Z,9.43
2018-04-26T21:49:39.035Z,9.46
2018-04-26T21:52:10.913Z,9.48
2018-04-26T21:54:42.991Z,9.51
2018-04-26T21:57:14.988Z,9.50
2018-04-26T21:59:46.884Z,9.44
2018-04-26T22:02:18.746Z,9.43
2018-04-26T22:07:49.920Z,9.36
2018-04-26T22:10:15.659Z,9.32
2018-04-26T22:12:41.704Z,9.30
2018-04-26T22:15:07.457Z,9.29
2018-04-26T22:17:34.930Z,9.25
2018-04-26T22:20:00.779Z,9.25
2018-04-26T22:22:26.591Z,9.17
2018-04-26T22:24:53.935Z,9.11
2018-04-26T22:27:19.759Z,9.06
2018-04-26T22:29:45.511Z,9.04
2018-04-26T22:32:11.682Z,9.02
2018-04-26T22:34:37.443Z,9.00
2018-04-26T22:37:03.207Z,8.98
2018-04-26T22:39:29.004Z,8.94
2018-04-26T22:41:54.756Z,8.91
2018-04-26T22:44:20.514Z,8.89
2018-04-26T22:46:46.279Z,8.90
2018-04-26T22:49:12.056Z,8.89
2018-04-26T22:51:37.844Z,8.86
2018-04-26T22:54:03.868Z,8.85
2018-04-26T22:56:29.627Z,8.86
2018-04-26T22:58:55.588Z,8.84
2018-04-26T23:01:21.375Z,8.87
2018-04-26T23:03:47.112Z,8.84
2018-04-26T23:06:27.833Z,8.83
2018-04-26T23:08:53.624Z,8.86
2018-04-26T23:11:19.366Z,8.86
2018-04-26T23:13:45.139Z,8.86
2018-04-26T23:16:10.887Z,8.85
2018-04-26T23:18:36.651Z,8.85
2018-04-26T23:21:02.422Z,8.86
2018-04-26T23:23:28.199Z,8.80
2018-04-26T23:25:53.943Z,8.80
2018-04-26T23:28:19.723Z,8.80
2018-04-26T23:30:45.480Z,8.78
2018-04-26T23:33:11.261Z,8.77
2018-04-26T23:35:37.011Z,8.75
2018-04-26T23:38:02.796Z,8.78
2018-04-26T23:40:28.564Z,8.79
2018-04-26T23:42:54.362Z,8.78
2018-04-26T23:45:20.103Z,8.75
2018-04-26T23:47:45.898Z,8.73
2018-04-26T23:50:11.652Z,8.72
2018-04-26T23:52:37.455Z,8.72
2018-04-26T23:55:03.223Z,8.71
2018-04-26T23:57:29.200Z,8.70
2018-04-26T23:59:54.965Z,8.71
